Time;durP1;ratioP1;P1;durP2;ratioP2;P2;SDS_P1;SDS_P2;PMS_P1;PMS_P2;Temp;Humidity;BMP_temperature;BMP_pressure;BME280_temperature;BME280_humidity;BME280_pressure;Samples;Min_cycle;Max_cycle;Signal;HPM_P1;HPM_P2
2022/03/01 00:01:02;;;;;;;25.42;14.07;;;;;;;2.70;69.86;102734.50;6278966;22;20004;-61
2022/03/01 00:03:27;;;;;;;24.00;14.13;;;;;;;2.67;70.20;102729.19;6279150;22;20010;-62
2022/03/01 00:05:52;;;;;;;25.88;14.20;;;;;;;2.60;70.34;102726.25;6279258;22;20061;-62
2022/03/01 00:08:18;;;;;;;24.67;13.65;;;;;;;2.57;70.75;102739.00;6279206;22;20017;-61
2022/03/01 00:10:43;;;;;;;21.95;13.93;;;;;;;2.56;70.87;102745.88;6279567;22;20008;-60
2022/03/01 00:13:08;;;;;;;27.40;13.98;;;;;;;2.43;71.40;102743.47;6279122;22;20012;-62
2022/03/01 00:15:33;;;;;;;25.00;14.07;;;;;;;2.41;71.53;102745.09;6279140;22;20012;-61
2022/03/01 00:17:59;;;;;;;25.48;14.70;;;;;;;2.39;72.50;102742.44;6279444;22;20015;-62
2022/03/01 00:20:24;;;;;;;23.80;13.73;;;;;;;2.31;72.63;102748.91;6279305;22;20004;-64
2022/03/01 00:22:49;;;;;;;23.25;14.32;;;;;;;2.24;72.99;102744.25;6279344;22;20060;-62
2022/03/01 00:25:15;;;;;;;24.05;14.38;;;;;;;2.20;73.80;102737.16;6279453;22;20012;-61
2022/03/01 00:27:40;;;;;;;24.05;14.68;;;;;;;2.13;74.16;102735.06;6279286;22;20012;-61
2022/03/01 00:30:06;;;;;;;22.63;13.98;;;;;;;2.10;74.75;102738.38;6278992;22;20359;-61
2022/03/01 00:32:31;;;;;;;21.70;14.23;;;;;;;2.00;74.59;102738.72;6278836;22;20011;-61
2022/03/01 00:34:56;;;;;;;24.23;14.05;;;;;;;2.00;74.63;102743.00;6278742;22;20018;-60
2022/03/01 00:37:21;;;;;;;23.75;14.65;;;;;;;1.91;75.29;102745.97;6279130;22;20004;-61
2022/03/01 00:39:47;;;;;;;21.90;14.07;;;;;;;1.86;75.85;102744.84;6278413;22;20308;-61
2022/03/01 00:42:12;;;;;;;23.05;14.18;;;;;;;1.80;75.68;102741.06;6279138;22;20012;-62
2022/03/01 00:44:37;;;;;;;25.25;14.60;;;;;;;1.80;75.89;102741.06;6278904;22;20301;-62
2022/03/01 00:47:03;;;;;;;23.13;13.95;;;;;;;1.77;75.63;102743.47;6278299;22;20087;-62
2022/03/01 00:49:28;;;;;;;23.40;14.02;;;;;;;1.68;76.41;102747.34;6279271;22;20061;-61
2022/03/01 00:51:53;;;;;;;22.98;13.98;;;;;;;1.62;75.72;102740.97;6278844;22;20297;-62
2022/03/01 00:54:18;;;;;;;24.27;13.73;;;;;;;1.58;76.27;102739.91;6278972;22;20007;-61
2022/03/01 00:56:44;;;;;;;25.42;14.43;;;;;;;1.53;76.56;102741.38;6278481;22;20065;-62
2022/03/01 00:59:09;;;;;;;23.58;14.38;;;;;;;1.52;77.31;102736.13;6279007;22;20049;-60
2022/03/01 01:01:35;;;;;;;24.08;13.98;;;;;;;1.45;76.54;102736.59;6278490;22;20384;-61
2022/03/01 01:04:00;;;;;;;22.88;14.20;;;;;;;1.44;77.36;102745.16;6278901;22;20010;-62
2022/03/01 01:06:25;;;;;;;25.55;14.25;;;;;;;1.42;77.28;102750.22;6279118;22;20008;-62
2022/03/01 01:08:51;;;;;;;23.42;13.93;;;;;;;1.46;77.33;102744.44;6278763;22;20351;-62
2022/03/01 01:11:16;;;;;;;21.25;13.75;;;;;;;1.39;77.17;102737.16;6278740;22;20014;-62
2022/03/01 01:13:41;;;;;;;24.42;13.13;;;;;;;1.42;77.18;102739.91;6278736;22;20069;-61
2022/03/01 01:16:07;;;;;;;24.02;14.73;;;;;;;1.39;77.22;102743.19;6278536;22;20008;-62
2022/03/01 01:18:33;;;;;;;22.35;13.70;;;;;;;1.32;77.97;102735.06;6278783;22;20015;-60
2022/03/01 01:20:58;;;;;;;23.88;13.85;;;;;;;1.35;77.42;102737.81;6278615;22;20415;-62
2022/03/01 01:23:23;;;;;;;22.85;13.88;;;;;;;1.33;77.42;102732.56;6278947;22;20003;-61
2022/03/01 01:25:50;;;;;;;24.05;13.18;;;;;;;1.32;77.69;102735.94;6278729;22;20019;-61
2022/03/01 01:28:16;;;;;;;24.67;14.30;;;;;;;1.34;77.85;102736.91;6278244;22;20339;-62
2022/03/01 01:30:41;;;;;;;28.27;14.57;;;;;;;1.33;77.36;102747.16;6277861;22;20007;-63
2022/03/01 01:33:06;;;;;;;22.60;13.30;;;;;;;1.35;78.01;102738.69;6278502;22;20061;-61
2022/03/01 01:35:34;;;;;;;23.10;13.70;;;;;;;1.32;77.21;102737.63;6278588;22;20352;-62
2022/03/01 01:37:59;;;;;;;22.23;13.10;;;;;;;1.29;78.12;102727.16;6278478;22;20004;-60
2022/03/01 01:40:28;;;;;;;25.20;13.95;;;;;;;1.34;77.77;102736.03;6278686;22;20008;-61
2022/03/01 01:42:54;;;;;;;23.67;13.90;;;;;;;1.36;77.63;102747.31;6278339;22;20408;-61
2022/03/01 01:45:21;;;;;;;23.55;13.88;;;;;;;1.39;76.72;102739.72;6277741;22;20479;-61
2022/03/01 01:47:47;;;;;;;25.23;12.93;;;;;;;1.49;77.13;102738.53;6278690;22;20301;-61
2022/03/01 01:50:14;;;;;;;22.15;13.00;;;;;;;1.49;76.16;102738.53;6278417;22;20011;-61
2022/03/01 01:52:39;;;;;;;22.23;13.35;;;;;;;1.49;75.39;102736.84;6278260;22;20035;-60
2022/03/01 01:55:05;;;;;;;25.02;13.90;;;;;;;1.54;75.87;102732.84;6277948;22;20022;-61
2022/03/01 01:57:30;;;;;;;25.20;13.98;;;;;;;1.61;74.58;102732.34;6278416;22;20095;-61
2022/03/01 01:59:56;;;;;;;21.13;13.18;;;;;;;1.71;75.03;102736.31;6278289;22;20011;-61
2022/03/01 02:02:24;;;;;;;23.63;13.60;;;;;;;1.80;74.26;102730.72;6278752;22;20078;-61
2022/03/01 02:04:49;;;;;;;21.50;12.30;;;;;;;1.88;71.79;102729.44;6278848;22;20011;-61
2022/03/01 02:07:15;;;;;;;20.98;12.45;;;;;;;1.96;71.43;102731.59;6278309;22;20003;-61
2022/03/01 02:09:41;;;;;;;22.38;13.20;;;;;;;1.99;72.26;102725.72;6278341;22;20004;-61
2022/03/01 02:12:07;;;;;;;21.90;12.75;;;;;;;1.98;72.76;102726.53;6278344;22;20004;-61
2022/03/01 02:14:33;;;;;;;24.25;13.43;;;;;;;2.03;71.87;102725.06;6251361;22;20004;-62
2022/03/01 02:17:00;;;;;;;22.58;13.43;;;;;;;2.05;72.31;102720.88;6278254;22;20038;-61
2022/03/01 02:19:27;;;;;;;22.67;13.40;;;;;;;1.99;71.32;102710.22;6278479;22;20015;-61
2022/03/01 02:21:57;;;;;;;18.75;12.10;;;;;;;2.02;70.55;102726.78;6278291;22;20008;-61
2022/03/01 02:24:25;;;;;;;20.83;12.70;;;;;;;2.04;71.16;102719.09;6278479;22;20086;-60
2022/03/01 02:26:59;;;;;;;22.65;13.32;;;;;;;2.02;71.24;102729.34;6278005;22;20451;-61
2022/03/01 02:29:25;;;;;;;21.05;12.70;;;;;;;2.04;70.85;102729.44;6278163;22;20037;-61
2022/03/01 02:31:51;;;;;;;22.70;12.63;;;;;;;2.00;70.28;102730.06;6278267;22;20043;-61
2022/03/01 02:34:18;;;;;;;24.13;12.88;;;;;;;1.99;70.51;102725.72;6278323;22;20011;-61
2022/03/01 02:36:44;;;;;;;22.08;12.63;;;;;;;1.98;70.75;102724.84;6277863;22;20014;-61
2022/03/01 02:39:09;;;;;;;22.33;12.75;;;;;;;2.00;70.35;102725.81;6278219;22;20019;-61
2022/03/01 02:41:38;;;;;;;21.35;12.32;;;;;;;2.04;70.17;102716.53;6277892;22;20003;-61
2022/03/01 02:44:04;;;;;;;19.52;12.27;;;;;;;2.06;70.18;102713.22;6278157;22;20071;-61
2022/03/01 02:46:29;;;;;;;22.23;12.93;;;;;;;2.07;69.84;102709.84;6278158;22;20038;-61
2022/03/01 02:48:55;;;;;;;21.15;12.70;;;;;;;2.13;69.99;102710.94;6278188;22;20120;-61
2022/03/01 02:51:20;;;;;;;21.70;12.52;;;;;;;2.09;69.34;102690.09;6277860;22;19996;-60
2022/03/01 02:53:45;;;;;;;20.45;12.45;;;;;;;2.19;69.27;102700.91;6277889;22;20083;-60
2022/03/01 02:56:11;;;;;;;20.42;12.93;;;;;;;2.27;68.69;102705.63;6278003;22;20004;-60
2022/03/01 02:58:36;;;;;;;20.95;12.23;;;;;;;2.33;67.77;102698.22;6277817;22;20014;-61
2022/03/01 03:01:01;;;;;;;20.85;11.90;;;;;;;2.40;68.37;102696.81;6277824;22;20396;-62
2022/03/01 03:03:27;;;;;;;21.90;11.35;;;;;;;2.42;67.21;102684.88;6279589;22;20057;-61
2022/03/01 03:05:52;;;;;;;23.98;12.60;;;;;;;2.49;65.75;102693.78;6280014;22;20037;-61
2022/03/01 03:08:17;;;;;;;21.45;11.90;;;;;;;2.49;67.13;102691.22;6280012;22;20393;-61
2022/03/01 03:10:42;;;;;;;22.17;12.38;;;;;;;2.53;66.69;102696.63;6279481;22;20008;-61
2022/03/01 03:13:08;;;;;;;18.90;11.82;;;;;;;2.48;67.51;102698.06;6279656;22;20012;-61
2022/03/01 03:15:33;;;;;;;24.27;12.85;;;;;;;2.51;68.00;102689.59;6279814;22;20058;-62
2022/03/01 03:17:58;;;;;;;19.88;12.07;;;;;;;2.51;67.58;102684.44;6280883;22;20077;-61
2022/03/01 03:20:24;;;;;;;20.63;12.13;;;;;;;2.51;67.31;102694.75;6279413;22;20087;-58
2022/03/01 03:22:50;;;;;;;19.88;12.63;;;;;;;2.53;66.52;102695.72;6279901;22;20003;-61
2022/03/01 03:25:16;;;;;;;20.08;12.10;;;;;;;2.50;67.27;102690.41;6279779;22;20015;-60
2022/03/01 03:27:42;;;;;;;20.60;12.00;;;;;;;2.51;67.57;102699.94;6279078;22;20023;-61
2022/03/01 03:30:08;;;;;;;19.70;12.07;;;;;;;2.45;67.56;102685.88;6280072;22;20086;-60
2022/03/01 03:32:34;;;;;;;19.55;11.68;;;;;;;2.47;68.30;102688.56;6279504;22;20007;-62
2022/03/01 03:35:00;;;;;;;21.42;12.40;;;;;;;2.45;68.32;102688.47;6279677;22;20008;-61
2022/03/01 03:37:25;;;;;;;21.13;12.38;;;;;;;2.42;68.71;102695.22;6279865;22;20027;-61
2022/03/01 03:39:50;;;;;;;20.45;12.13;;;;;;;2.41;69.52;102693.44;6279525;22;20014;-61
2022/03/01 03:42:16;;;;;;;21.30;12.25;;;;;;;2.36;69.33;102695.78;6279272;22;20003;-59
2022/03/01 03:44:42;;;;;;;20.42;12.18;;;;;;;2.37;68.61;102696.66;6279407;22;20000;-59
2022/03/01 03:47:09;;;;;;;19.05;12.07;;;;;;;2.29;68.20;102685.94;6279987;22;20008;-60
2022/03/01 03:49:35;;;;;;;21.05;12.82;;;;;;;2.31;69.52;102694.66;6279619;22;20011;-60
2022/03/01 03:52:00;;;;;;;21.42;12.35;;;;;;;2.25;71.33;102694.34;6279094;22;20004;-62
2022/03/01 03:54:26;;;;;;;21.00;12.65;;;;;;;2.23;68.97;102701.16;6279558;22;20004;-60
2022/03/01 03:56:51;;;;;;;24.67;13.13;;;;;;;2.23;69.12;102685.66;6279520;22;20003;-61
2022/03/01 03:59:17;;;;;;;23.10;13.00;;;;;;;2.29;68.66;102683.34;6279422;22;20022;-62
2022/03/01 04:01:42;;;;;;;23.33;12.63;;;;;;;2.26;69.27;102680.63;6279829;22;20027;-61
2022/03/01 04:04:08;;;;;;;23.20;12.50;;;;;;;2.29;69.09;102690.22;6279825;22;20347;-61
2022/03/01 04:06:34;;;;;;;24.60;13.05;;;;;;;2.28;70.09;102691.91;6279474;22;20008;-60
2022/03/01 04:09:00;;;;;;;22.65;12.88;;;;;;;2.28;69.16;102689.34;6279444;22;20086;-61
2022/03/01 04:11:25;;;;;;;21.80;13.05;;;;;;;2.31;69.32;102694.66;6278936;22;20038;-61
2022/03/01 04:13:52;;;;;;;20.63;12.30;;;;;;;2.31;69.70;102696.34;6278796;22;20000;-61
2022/03/01 04:16:18;;;;;;;23.38;12.60;;;;;;;2.34;68.50;102684.47;6279107;22;20034;-62
2022/03/01 04:18:43;;;;;;;23.52;12.48;;;;;;;2.37;66.52;102694.09;6279296;22;20003;-60
2022/03/01 04:21:08;;;;;;;22.20;12.48;;;;;;;2.37;67.87;102688.91;6279276;22;20003;-61
2022/03/01 04:23:33;;;;;;;21.25;12.68;;;;;;;2.27;67.63;102674.66;6279325;22;20010;-61
2022/03/01 04:25:59;;;;;;;21.05;13.05;;;;;;;2.40;67.97;102692.56;6278922;22;20313;-60
2022/03/01 04:28:24;;;;;;;22.02;12.77;;;;;;;2.42;69.10;102687.47;6279130;22;20013;-61
2022/03/01 04:30:49;;;;;;;25.42;13.65;;;;;;;2.41;68.82;102696.03;6278625;22;20062;-61
2022/03/01 04:33:15;;;;;;;26.77;13.85;;;;;;;2.46;68.99;102702.28;6279223;22;20003;-61
2022/03/01 04:35:40;;;;;;;23.88;13.13;;;;;;;2.44;68.45;102698.72;6278686;22;20333;-59
2022/03/01 04:38:05;;;;;;;21.40;12.63;;;;;;;2.45;70.71;102705.66;6278860;22;20014;-59
2022/03/01 04:40:31;;;;;;;22.50;13.00;;;;;;;2.44;69.76;102704.78;6278814;22;20003;-60
2022/03/01 04:42:56;;;;;;;22.60;13.25;;;;;;;2.40;71.30;102697.72;6278394;22;20003;-60
2022/03/01 04:45:21;;;;;;;20.23;12.10;;;;;;;2.42;70.13;102688.31;6278802;22;20015;-59
2022/03/01 04:47:47;;;;;;;25.33;13.25;;;;;;;2.44;71.61;102702.19;6279001;22;20000;-59
2022/03/01 04:50:13;;;;;;;21.55;12.90;;;;;;;2.43;70.95;102708.19;6278158;22;20404;-62
2022/03/01 04:52:38;;;;;;;21.42;13.15;;;;;;;2.40;70.39;102695.13;6278388;22;20004;-60
2022/03/01 04:55:04;;;;;;;26.02;13.38;;;;;;;2.43;70.92;102687.50;6278682;22;20003;-59
2022/03/01 04:57:29;;;;;;;21.95;13.40;;;;;;;2.45;69.89;102685.00;6278681;22;21043;-59
2022/03/01 04:59:54;;;;;;;19.98;12.73;;;;;;;2.43;69.58;102679.75;6278997;22;20000;-59
2022/03/01 05:02:20;;;;;;;25.45;13.48;;;;;;;2.49;70.22;102684.34;6279263;22;20395;-58
2022/03/01 05:04:45;;;;;;;26.48;13.32;;;;;;;2.48;69.99;102681.69;6278755;22;20003;-59
2022/03/01 05:07:10;;;;;;;22.30;12.95;;;;;;;2.49;69.85;102686.03;6278881;22;20018;-59
2022/03/01 05:09:35;;;;;;;22.27;12.95;;;;;;;2.51;68.19;102684.44;6278846;22;20351;-59
2022/03/01 05:12:01;;;;;;;21.35;12.73;;;;;;;2.52;67.86;102681.91;6278076;22;20014;-59
2022/03/01 05:14:26;;;;;;;21.33;12.80;;;;;;;2.58;67.76;102691.69;6278602;22;20008;-59
2022/03/01 05:16:52;;;;;;;20.48;12.35;;;;;;;2.51;66.39;102674.97;6278668;22;20018;-60
2022/03/01 05:19:17;;;;;;;20.80;12.55;;;;;;;2.59;66.65;102685.69;6278881;22;20015;-59
2022/03/01 05:21:42;;;;;;;21.55;12.63;;;;;;;2.59;66.37;102683.13;6278787;22;20397;-59
2022/03/01 05:24:08;;;;;;;21.08;12.13;;;;;;;2.60;65.55;102685.75;6278622;22;20007;-58
2022/03/01 05:26:34;;;;;;;20.42;12.27;;;;;;;2.60;65.84;102678.00;6278101;22;20308;-59
2022/03/01 05:28:59;;;;;;;20.80;12.15;;;;;;;2.60;66.83;102680.56;6278540;22;20097;-58
2022/03/01 05:31:26;;;;;;;20.70;13.30;;;;;;;2.65;65.82;102670.47;6278135;22;20042;-59
2022/03/01 05:33:52;;;;;;;20.35;12.65;;;;;;;2.71;63.84;102658.75;6278113;22;20090;-58
2022/03/01 05:36:18;;;;;;;20.13;11.98;;;;;;;2.77;64.58;102663.31;6278616;22;19999;-59
2022/03/01 05:38:43;;;;;;;21.08;12.20;;;;;;;2.82;63.72;102664.41;6278162;22;20075;-58
2022/03/01 05:41:09;;;;;;;22.55;12.57;;;;;;;2.82;63.80;102661.81;6278179;22;20004;-59
2022/03/01 05:43:36;;;;;;;23.60;12.70;;;;;;;2.80;64.35;102666.91;6278527;22;20309;-59
2022/03/01 05:46:02;;;;;;;24.55;13.00;;;;;;;2.77;65.47;102653.84;6278080;22;20065;-60
2022/03/01 05:48:27;;;;;;;21.52;13.65;;;;;;;2.71;65.33;102650.09;6279070;22;20007;-59
2022/03/01 05:50:54;;;;;;;24.90;13.18;;;;;;;2.69;65.57;102657.78;6278880;22;20061;-59
2022/03/01 05:53:20;;;;;;;22.55;12.55;;;;;;;2.65;63.66;102642.94;6278479;22;20004;-59
2022/03/01 05:55:45;;;;;;;25.17;12.80;;;;;;;2.64;64.56;102656.66;6278188;22;20018;-59
2022/03/01 05:58:11;;;;;;;21.00;12.45;;;;;;;2.63;64.69;102664.34;6278050;22;20404;-59
2022/03/01 06:00:37;;;;;;;21.63;12.65;;;;;;;2.59;64.89;102665.91;6279095;22;20057;-58
2022/03/01 06:03:02;;;;;;;22.77;12.85;;;;;;;2.52;64.13;102660.34;6278338;22;20026;-59
2022/03/01 06:05:28;;;;;;;20.63;12.82;;;;;;;2.50;64.81;102660.28;6278410;22;20416;-57
2022/03/01 06:07:55;;;;;;;22.38;12.80;;;;;;;2.50;65.11;102654.22;6278708;22;20041;-58
2022/03/01 06:10:21;;;;;;;23.65;13.40;;;;;;;2.48;65.79;102661.91;6277953;22;20061;-59
2022/03/01 06:12:47;;;;;;;23.98;12.77;;;;;;;2.40;66.71;102666.72;6278269;22;20011;-59
2022/03/01 06:15:13;;;;;;;25.42;14.13;;;;;;;2.35;67.26;102652.69;6277875;22;20005;-60
2022/03/01 06:17:39;;;;;;;24.40;13.55;;;;;;;2.31;68.61;102653.34;6278662;22;20024;-58
2022/03/01 06:20:05;;;;;;;21.77;13.52;;;;;;;2.28;68.27;102655.75;6278478;22;20004;-59
2022/03/01 06:22:31;;;;;;;24.67;13.30;;;;;;;2.26;69.22;102652.22;6278296;22;20014;-59
2022/03/01 06:24:56;;;;;;;23.70;13.30;;;;;;;2.24;66.30;102658.13;6277615;22;19999;-59
2022/03/01 06:27:23;;;;;;;22.77;13.02;;;;;;;2.23;67.58;102657.25;6277843;22;20000;-59
2022/03/01 06:29:48;;;;;;;22.45;12.98;;;;;;;2.24;69.60;102653.84;6278275;22;20007;-59
2022/03/01 06:32:13;;;;;;;25.30;13.60;;;;;;;2.16;69.55;102655.16;6278275;22;20035;-59
2022/03/01 06:34:39;;;;;;;23.85;13.38;;;;;;;2.15;70.35;102665.41;6277792;22;20069;-57
2022/03/01 06:37:04;;;;;;;22.40;13.77;;;;;;;2.16;70.95;102665.50;6277950;22;20007;-58
2022/03/01 06:39:32;;;;;;;24.35;14.05;;;;;;;2.14;71.44;102686.88;6279795;22;20038;-58
2022/03/01 06:41:58;;;;;;;25.15;14.38;;;;;;;2.09;71.67;102684.94;6280394;22;20380;-58
2022/03/01 06:44:23;;;;;;;23.23;14.07;;;;;;;2.12;72.63;102691.06;6280046;22;20015;-57
2022/03/01 06:46:48;;;;;;;24.30;14.45;;;;;;;2.12;72.11;102689.38;6280146;22;20088;-57
2022/03/01 06:49:14;;;;;;;23.65;13.85;;;;;;;2.16;70.71;102688.72;6279563;22;20004;-58
2022/03/01 06:51:39;;;;;;;23.13;14.70;;;;;;;2.20;71.69;102676.88;6280016;22;20023;-58
2022/03/01 06:54:04;;;;;;;24.60;14.23;;;;;;;2.30;71.40;102685.13;6279331;22;20431;-57
2022/03/01 06:56:29;;;;;;;25.30;14.65;;;;;;;2.38;71.49;102691.59;6279641;22;20039;-58
2022/03/01 06:58:55;;;;;;;22.23;13.82;;;;;;;2.41;71.39;102694.31;6280359;22;20007;-58
2022/03/01 07:01:20;;;;;;;26.92;14.65;;;;;;;2.48;72.55;102689.44;6279930;22;20018;-59
2022/03/01 07:03:46;;;;;;;24.38;14.10;;;;;;;2.48;70.59;102684.28;6279832;22;20329;-58
2022/03/01 07:06:11;;;;;;;28.52;14.70;;;;;;;2.67;70.32;102697.28;6279416;22;19999;-58
2022/03/01 07:08:37;;;;;;;25.88;15.43;;;;;;;2.79;70.66;102700.44;6279583;22;20036;-59
2022/03/01 07:11:03;;;;;;;25.55;14.70;;;;;;;2.86;66.35;102694.75;6279752;22;20011;-58
2022/03/01 07:13:28;;;;;;;24.60;14.73;;;;;;;2.99;66.50;102697.09;6280008;22;20016;-59
2022/03/01 07:15:53;;;;;;;25.00;15.23;;;;;;;3.11;64.77;102702.00;6279959;22;20014;-58
2022/03/01 07:18:18;;;;;;;25.27;14.43;;;;;;;3.23;65.06;102691.31;6253225;22;20400;-59
2022/03/01 07:20:44;;;;;;;31.13;15.70;;;;;;;3.32;64.26;102687.44;6279953;22;20000;-59
2022/03/01 07:23:10;;;;;;;25.77;15.48;;;;;;;3.35;64.41;102681.50;6279543;22;20008;-60
2022/03/01 07:25:36;;;;;;;25.77;15.63;;;;;;;3.51;64.19;102689.16;6279871;22;20011;-59
2022/03/01 07:28:02;;;;;;;26.08;15.43;;;;;;;3.55;63.55;102700.53;6279790;22;20454;-58
2022/03/01 07:30:27;;;;;;;26.85;15.85;;;;;;;3.64;64.54;102703.53;6279467;22;20015;-58
2022/03/01 07:32:55;;;;;;;28.33;15.70;;;;;;;3.73;63.05;102701.34;6279620;22;20010;-59
2022/03/01 07:35:21;;;;;;;26.90;15.50;;;;;;;3.79;62.34;102702.53;6279526;22;20008;-58
2022/03/01 07:37:47;;;;;;;27.13;14.82;;;;;;;3.81;61.39;102702.56;6279428;22;20007;-60
2022/03/01 07:40:15;;;;;;;28.90;15.73;;;;;;;3.82;61.75;102704.34;6279394;22;20089;-59
2022/03/01 07:42:41;;;;;;;23.95;14.88;;;;;;;3.93;61.24;102707.41;6279969;22;20082;-59
2022/03/01 07:45:08;;;;;;;26.67;14.73;;;;;;;4.05;61.60;102723.47;6279546;22;20078;-58
2022/03/01 07:47:33;;;;;;;26.75;15.18;;;;;;;4.03;60.92;102717.34;6279608;22;20069;-58
2022/03/01 07:49:59;;;;;;;25.80;14.70;;;;;;;4.09;60.66;102720.19;6279220;22;20352;-58
2022/03/01 07:52:25;;;;;;;27.77;15.27;;;;;;;4.07;60.07;102714.94;6279084;22;20000;-58
2022/03/01 07:54:50;;;;;;;25.65;15.00;;;;;;;4.05;60.26;102707.94;6277693;22;20087;-59
2022/03/01 07:57:16;;;;;;;28.17;15.38;;;;;;;4.02;60.29;102710.38;6252516;22;20007;-58
2022/03/01 07:59:42;;;;;;;24.50;14.88;;;;;;;3.99;60.50;102697.28;6279479;22;20003;-59
2022/03/01 08:02:08;;;;;;;24.25;14.63;;;;;;;3.93;60.47;102691.88;6279357;22;20015;-59
2022/03/01 08:04:33;;;;;;;25.55;15.32;;;;;;;3.89;60.82;102695.13;6279166;22;20377;-59
2022/03/01 08:06:58;;;;;;;26.30;15.02;;;;;;;3.85;60.34;102701.88;6279103;22;20008;-58
2022/03/01 08:09:24;;;;;;;26.40;14.45;;;;;;;3.89;60.06;102700.31;6279049;22;20012;-58
2022/03/01 08:11:49;;;;;;;23.50;14.93;;;;;;;3.91;60.60;102716.81;6279017;22;20008;-58
2022/03/01 08:14:16;;;;;;;25.15;14.27;;;;;;;3.90;60.69;102715.94;6278980;22;20305;-58
2022/03/01 08:16:41;;;;;;;24.92;14.95;;;;;;;3.95;60.82;102718.72;6279122;22;20077;-58
2022/03/01 08:19:07;;;;;;;28.70;15.07;;;;;;;4.01;60.00;102721.56;6278936;22;20015;-58
2022/03/01 08:21:32;;;;;;;24.38;15.45;;;;;;;4.09;60.06;102707.25;6278558;22;20004;-59
2022/03/01 08:23:57;;;;;;;28.20;15.32;;;;;;;4.20;59.81;102708.59;6278170;22;20010;-59
2022/03/01 08:26:23;;;;;;;27.42;14.48;;;;;;;4.27;59.63;102710.63;6279417;22;20004;-58
2022/03/01 08:28:49;;;;;;;29.80;15.50;;;;;;;4.34;59.99;102715.22;6279391;22;20015;-59
2022/03/01 08:31:15;;;;;;;26.50;15.20;;;;;;;4.41;59.24;102714.66;6278801;22;20004;-58
2022/03/01 08:33:40;;;;;;;31.70;14.95;;;;;;;4.43;59.99;102710.44;6279157;22;20407;-59
2022/03/01 08:36:05;;;;;;;30.92;15.20;;;;;;;4.50;59.95;102720.22;6278866;22;20011;-58
2022/03/01 08:38:31;;;;;;;26.48;14.85;;;;;;;4.52;58.49;102723.75;6278748;22;20007;-58
2022/03/01 08:40:56;;;;;;;31.90;15.57;;;;;;;4.51;58.73;102719.41;6278604;22;20035;-59
2022/03/01 08:43:22;;;;;;;28.15;15.13;;;;;;;4.63;59.10;102723.34;6278876;22;20031;-58
2022/03/01 08:45:48;;;;;;;29.27;15.57;;;;;;;4.76;59.72;102730.78;6278911;22;20003;-59
2022/03/01 08:48:14;;;;;;;26.05;15.60;;;;;;;4.80;59.17;102720.59;6278801;22;20011;-60
2022/03/01 08:50:39;;;;;;;27.80;15.68;;;;;;;4.88;59.43;102726.97;6278410;22;20084;-59
2022/03/01 08:53:05;;;;;;;28.33;15.38;;;;;;;4.99;58.92;102740.38;6278263;22;20003;-59
2022/03/01 08:55:31;;;;;;;27.58;15.13;;;;;;;5.08;58.84;102735.53;6278750;22;20019;-63
2022/03/01 08:57:59;;;;;;;23.42;14.73;;;;;;;5.18;58.54;102742.88;6278827;22;20014;-60
2022/03/01 09:00:25;;;;;;;24.00;14.57;;;;;;;5.29;57.86;102739.81;6278248;22;20004;-59
2022/03/01 09:02:50;;;;;;;23.38;14.43;;;;;;;5.40;56.12;102735.91;6278212;22;20413;-60
2022/03/01 09:05:15;;;;;;;24.52;14.27;;;;;;;5.52;54.93;102742.47;6278928;22;20031;-59
2022/03/01 09:07:41;;;;;;;25.00;14.18;;;;;;;5.65;55.65;102758.50;6278095;22;20413;-60
2022/03/01 09:10:07;;;;;;;26.85;14.23;;;;;;;5.81;54.51;102753.03;6278593;22;20086;-60
2022/03/01 09:12:32;;;;;;;23.23;14.68;;;;;;;5.94;54.69;102758.75;6252150;22;20301;-59
2022/03/01 09:14:58;;;;;;;25.52;14.75;;;;;;;6.04;53.61;102751.31;6278131;22;20010;-59
2022/03/01 09:17:23;;;;;;;23.48;14.18;;;;;;;6.18;53.02;102750.97;6278736;22;20293;-60
2022/03/01 09:19:49;;;;;;;23.27;14.10;;;;;;;6.34;52.39;102741.97;6278143;22;20305;-59
2022/03/01 09:22:14;;;;;;;22.40;13.38;;;;;;;6.47;53.91;102741.56;6277721;22;20075;-59
2022/03/01 09:24:40;;;;;;;23.35;14.75;;;;;;;6.54;52.41;102730.53;6278186;22;20007;-59
2022/03/01 09:27:06;;;;;;;22.33;13.80;;;;;;;6.54;52.08;102729.66;6278166;22;20076;-60
2022/03/01 09:29:32;;;;;;;20.95;13.73;;;;;;;6.51;52.56;102733.03;6278521;22;20011;-59
2022/03/01 09:31:58;;;;;;;22.70;14.20;;;;;;;6.49;51.87;102731.19;6278007;22;20079;-59
2022/03/01 09:34:24;;;;;;;20.90;13.77;;;;;;;6.43;52.46;102739.66;6278328;22;20008;-60
2022/03/01 09:36:50;;;;;;;19.60;13.20;;;;;;;6.40;52.03;102742.19;6277363;22;20102;-60
2022/03/01 09:39:16;;;;;;;21.42;13.60;;;;;;;6.42;52.42;102737.91;6278239;22;20326;-59
2022/03/01 09:41:41;;;;;;;24.80;14.48;;;;;;;6.34;53.09;102697.78;6278292;22;20116;-58
2022/03/01 09:44:06;;;;;;;21.70;14.40;;;;;;;6.55;51.93;102726.22;6278289;22;20079;-59
2022/03/01 09:46:32;;;;;;;23.63;13.85;;;;;;;6.63;52.43;102735.13;6278342;22;20158;-59
2022/03/01 09:48:58;;;;;;;24.60;14.55;;;;;;;6.67;52.06;102737.00;6278158;22;20004;-59
2022/03/01 09:51:24;;;;;;;21.70;13.95;;;;;;;6.75;51.20;102748.56;6277852;22;19999;-60
2022/03/01 09:53:51;;;;;;;20.77;13.85;;;;;;;6.77;51.16;102746.88;6278109;22;20285;-60
2022/03/01 09:56:18;;;;;;;22.58;13.85;;;;;;;6.84;51.56;102745.38;6278194;22;20087;-59
2022/03/01 09:58:45;;;;;;;23.05;14.05;;;;;;;6.83;50.98;102739.28;6278104;22;20111;-60
2022/03/01 10:01:11;;;;;;;23.08;13.65;;;;;;;6.92;51.28;102749.13;6278575;22;20061;-59
2022/03/01 10:03:36;;;;;;;22.63;14.20;;;;;;;6.93;51.24;102753.47;6278069;22;20305;-58
2022/03/01 10:06:07;;;;;;;23.50;14.15;;;;;;;6.94;51.63;102761.31;6277406;22;20008;-58
2022/03/01 10:08:32;;;;;;;24.98;14.70;;;;;;;6.95;51.52;102747.47;6277883;22;20034;-58
2022/03/01 10:10:57;;;;;;;22.08;13.85;;;;;;;7.08;51.92;102750.47;6278728;22;20003;-58
2022/03/01 10:13:29;;;;;;;23.60;14.02;;;;;;;7.03;50.92;102739.91;6280093;22;20015;-58
2022/03/01 10:16:02;;;;;;;;;;;;;;;7.22;52.14;102755.28;6280545;22;20416;-58
2022/03/01 10:18:31;;;;;;;21.35;13.55;;;;;;;7.12;51.44;102757.53;6280205;22;19982;-59
2022/03/01 10:21:02;;;;;;;23.27;14.10;;;;;;;7.14;51.52;102755.88;6253692;22;20065;-58
2022/03/01 10:23:28;;;;;;;23.90;14.07;;;;;;;7.15;50.39;102749.81;6280137;22;20019;-58
2022/03/01 10:25:54;;;;;;;23.67;14.38;;;;;;;7.16;51.08;102739.47;6280269;22;20007;-57
2022/03/01 10:28:32;;;;;;;23.50;13.88;;;;;;;7.31;52.06;102744.25;6279807;22;20311;-58
2022/03/01 10:31:08;;;;;;;21.80;13.82;;;;;;;7.40;50.36;102743.66;6279815;22;20011;-58
2022/03/01 10:33:35;;;;;;;22.92;13.48;;;;;;;7.44;50.06;102741.19;6280378;22;20015;-59
2022/03/01 10:36:00;;;;;;;22.00;13.73;;;;;;;7.47;49.08;102735.16;6280505;22;20007;-58
2022/03/01 10:38:25;;;;;;;22.85;13.38;;;;;;;7.57;49.86;102730.28;6279972;22;20056;-58
2022/03/01 10:40:58;;;;;;;24.50;13.32;;;;;;;7.71;50.06;102735.91;6279889;22;20100;-58
2022/03/01 10:43:28;;;;;;;23.60;13.55;;;;;;;7.85;49.39;102734.56;6280339;22;20007;-58
2022/03/01 10:45:53;;;;;;;22.85;12.93;;;;;;;8.01;49.40;102730.66;6279161;22;20412;-58
2022/03/01 10:48:37;;;;;;;22.65;12.70;;;;;;;8.04;49.32;102730.72;6279939;22;20003;-58
2022/03/01 10:51:05;;;;;;;23.65;13.55;;;;;;;8.08;47.54;102739.53;6279972;22;20008;-58
2022/03/01 10:53:37;;;;;;;20.88;12.90;;;;;;;8.12;47.51;102744.00;6280099;22;20061;-59
2022/03/01 10:56:08;;;;;;;20.63;13.38;;;;;;;8.21;48.75;102741.63;6279729;22;20026;-60
2022/03/01 10:58:36;;;;;;;20.48;12.45;;;;;;;8.38;48.22;102749.06;6280525;22;20278;-60
2022/03/01 11:01:02;;;;;;;24.23;13.27;;;;;;;8.55;46.53;102746.03;6280002;22;20015;-59
2022/03/01 11:03:30;;;;;;;19.98;13.02;;;;;;;8.64;45.65;102741.94;6280053;22;20061;-59
2022/03/01 11:05:56;;;;;;;21.90;13.05;;;;;;;8.84;46.92;102750.22;6280193;22;20008;-59
2022/03/01 11:08:25;;;;;;;20.83;13.68;;;;;;;8.92;46.37;102750.41;6279989;22;20008;-59
2022/03/01 11:10:52;;;;;;;19.10;13.07;;;;;;;8.99;45.91;102754.97;6279074;22;20008;-59